createdAt,value
2019-04-30T00:01:59.394Z,22.50
2019-04-30T00:04:40.413Z,25.27
2019-04-30T00:07:15.554Z,23.70
2019-04-30T00:09:53.916Z,26.45
2019-04-30T00:12:30.941Z,24.43
2019-04-30T00:15:11.106Z,25.13
2019-04-30T00:17:52.836Z,25.17
2019-04-30T00:20:34.216Z,25.43
2019-04-30T00:23:08.782Z,23.50
2019-04-30T00:25:41.352Z,25.20
2019-04-30T00:28:15.538Z,23.83
2019-04-30T00:30:49.467Z,25.27
2019-04-30T00:33:23.174Z,25.33
2019-04-30T00:35:58.169Z,26.00
2019-04-30T00:38:34.282Z,24.73
2019-04-30T00:41:10.827Z,25.90
2019-04-30T00:43:49.271Z,29.83
2019-04-30T00:46:27.322Z,25.57
2019-04-30T00:49:09.278Z,26.67
2019-04-30T00:51:49.870Z,30.75
2019-04-30T00:54:29.353Z,28.83
2019-04-30T00:57:07.650Z,30.60
2019-04-30T00:59:46.555Z,28.40
2019-04-30T01:02:35.856Z,30.07
2019-04-30T01:05:11.564Z,28.83
2019-04-30T01:07:48.708Z,30.90
2019-04-30T01:10:28.214Z,30.43
2019-04-30T01:13:08.066Z,31.00
2019-04-30T01:15:44.033Z,31.17
2019-04-30T01:18:23.610Z,35.88
2019-04-30T01:21:02.919Z,31.83
2019-04-30T01:23:48.209Z,36.90
2019-04-30T01:26:27.735Z,32.10
2019-04-30T01:29:05.338Z,36.33
2019-04-30T01:31:40.727Z,37.00
2019-04-30T01:34:14.163Z,37.92
2019-04-30T01:36:48.429Z,34.73
2019-04-30T01:39:29.992Z,35.20
2019-04-30T01:42:07.949Z,33.93
2019-04-30T01:44:50.510Z,35.27
2019-04-30T01:47:27.662Z,36.80
2019-04-30T01:50:04.886Z,35.80
2019-04-30T01:52:44.174Z,35.63
2019-04-30T01:55:19.624Z,39.58
2019-04-30T01:58:10.830Z,35.27
2019-04-30T02:00:59.406Z,34.03
2019-04-30T02:03:32.053Z,34.23
2019-04-30T02:06:06.174Z,34.07
2019-04-30T02:08:39.315Z,35.00
2019-04-30T02:11:12.611Z,38.90
2019-04-30T02:13:46.753Z,35.77
2019-04-30T02:16:21.134Z,36.13
2019-04-30T02:18:56.032Z,39.70
2019-04-30T02:21:31.816Z,36.50
2019-04-30T02:24:05.814Z,34.57
2019-04-30T02:26:38.612Z,36.70
2019-04-30T02:29:11.579Z,35.77
2019-04-30T02:31:44.427Z,36.53
2019-04-30T02:34:30.231Z,36.67
2019-04-30T02:37:10.702Z,36.37
2019-04-30T02:39:43.199Z,38.10
2019-04-30T02:42:20.068Z,37.60
2019-04-30T02:44:54.343Z,39.83
2019-04-30T02:47:30.397Z,37.23
2019-04-30T02:50:15.278Z,36.63
2019-04-30T02:52:51.936Z,34.23
2019-04-30T02:55:45.013Z,39.80
2019-04-30T02:58:20.827Z,35.70
2019-04-30T03:00:53.596Z,33.57
2019-04-30T03:03:26.640Z,35.37
2019-04-30T03:05:59.626Z,38.65
2019-04-30T03:08:32.371Z,34.60
2019-04-30T03:11:05.212Z,34.87
2019-04-30T03:13:40.023Z,34.53
2019-04-30T03:16:24.655Z,35.20
2019-04-30T03:19:10.783Z,35.93
2019-04-30T03:21:50.271Z,35.40
2019-04-30T03:24:23.207Z,35.17
2019-04-30T03:26:55.615Z,36.13
2019-04-30T03:29:30.208Z,39.80
2019-04-30T03:32:03.773Z,38.27
2019-04-30T03:34:36.423Z,38.57
2019-04-30T03:37:11.531Z,37.83
2019-04-30T03:39:44.911Z,39.37
2019-04-30T03:42:19.913Z,37.53
2019-04-30T03:44:52.700Z,37.63
2019-04-30T03:47:25.434Z,38.10
2019-04-30T03:50:00.055Z,39.00
2019-04-30T03:52:32.690Z,39.50
2019-04-30T03:55:06.188Z,37.37
2019-04-30T03:57:39.925Z,37.90
2019-04-30T04:00:29.981Z,39.07
2019-04-30T04:03:02.673Z,37.90
2019-04-30T04:05:43.003Z,38.63
2019-04-30T04:08:24.577Z,38.63
2019-04-30T04:11:04.936Z,38.47
2019-04-30T04:13:39.916Z,39.60
2019-04-30T04:16:12.598Z,37.50
2019-04-30T04:18:45.590Z,37.47
2019-04-30T04:21:20.501Z,43.20
2019-04-30T04:23:53.129Z,37.77
2019-04-30T04:26:26.167Z,39.27
2019-04-30T04:28:59.424Z,39.57
2019-04-30T04:31:32.391Z,40.60
2019-04-30T04:34:05.531Z,40.43
2019-04-30T04:36:39.965Z,47.28
2019-04-30T04:39:15.759Z,47.08
2019-04-30T04:41:50.323Z,45.27
2019-04-30T04:44:23.160Z,42.73
2019-04-30T04:46:56.397Z,42.40
2019-04-30T04:49:31.416Z,42.60
2019-04-30T04:52:04.160Z,43.80
2019-04-30T04:54:36.671Z,43.23
2019-04-30T04:57:17.234Z,43.53
2019-04-30T04:59:50.751Z,43.80
2019-04-30T05:02:39.514Z,45.20
2019-04-30T05:05:14.012Z,45.90
2019-04-30T05:07:48.495Z,46.33
2019-04-30T05:10:22.034Z,46.30
2019-04-30T05:12:54.694Z,46.57
2019-04-30T05:15:29.474Z,46.30
2019-04-30T05:18:02.575Z,45.57
2019-04-30T05:20:35.051Z,46.83
2019-04-30T05:23:09.379Z,46.43
2019-04-30T05:25:42.031Z,45.87
2019-04-30T05:28:18.972Z,51.47
2019-04-30T05:30:52.700Z,48.23
2019-04-30T05:33:25.963Z,46.93
2019-04-30T05:35:59.396Z,43.17
2019-04-30T05:38:32.093Z,43.20
2019-04-30T05:41:05.085Z,44.90
2019-04-30T05:43:38.724Z,43.47
2019-04-30T05:46:13.964Z,40.70
2019-04-30T05:48:47.125Z,41.17
2019-04-30T05:51:21.294Z,42.37
2019-04-30T05:53:53.848Z,39.80
2019-04-30T05:56:30.163Z,36.60
2019-04-30T05:59:04.364Z,34.53
2019-04-30T06:01:39.495Z,32.40
2019-04-30T06:04:12.620Z,32.23
2019-04-30T06:06:45.325Z,30.90
2019-04-30T06:09:34.084Z,31.40
2019-04-30T06:12:21.228Z,31.47
2019-04-30T06:15:19.367Z,30.07
2019-04-30T06:18:00.324Z,35.38
2019-04-30T06:20:40.126Z,32.47
2019-04-30T06:23:12.765Z,36.53
2019-04-30T06:25:57.269Z,31.07
2019-04-30T06:28:35.423Z,26.87
2019-04-30T06:31:12.753Z,28.35
2019-04-30T06:33:48.634Z,28.75
2019-04-30T06:36:21.903Z,24.97
2019-04-30T06:38:55.922Z,24.47
2019-04-30T06:41:29.641Z,24.37
2019-04-30T06:44:02.529Z,23.73
2019-04-30T06:46:35.783Z,26.33
2019-04-30T06:49:09.879Z,26.37
2019-04-30T06:51:42.277Z,28.13
2019-04-30T06:54:19.045Z,27.53
2019-04-30T06:56:53.435Z,26.47
2019-04-30T06:59:25.970Z,24.40
2019-04-30T07:01:59.492Z,25.80
2019-04-30T07:04:34.015Z,26.27
2019-04-30T07:07:06.793Z,25.03
2019-04-30T07:09:56.791Z,24.30
2019-04-30T07:12:38.979Z,26.10
2019-04-30T07:15:14.843Z,26.48
2019-04-30T07:17:49.150Z,26.70
2019-04-30T07:20:23.544Z,23.90
2019-04-30T07:23:02.336Z,23.47
2019-04-30T07:25:36.339Z,21.60
2019-04-30T07:28:09.188Z,22.30
2019-04-30T07:30:45.269Z,20.30
2019-04-30T07:33:20.954Z,21.80
2019-04-30T07:35:54.954Z,21.20
2019-04-30T07:38:30.114Z,22.58
2019-04-30T07:41:02.563Z,20.40
2019-04-30T07:43:39.058Z,22.62
2019-04-30T07:46:12.657Z,20.67
2019-04-30T07:48:45.206Z,22.25
2019-04-30T07:51:21.494Z,20.23
2019-04-30T07:53:55.417Z,18.77
2019-04-30T07:56:34.952Z,18.57
2019-04-30T07:59:11.384Z,20.03
2019-04-30T08:02:00.263Z,20.80
2019-04-30T08:04:41.463Z,20.30
2019-04-30T08:07:16.141Z,20.63
2019-04-30T08:09:49.437Z,20.47
2019-04-30T08:12:30.434Z,19.40
2019-04-30T08:15:10.403Z,18.70
2019-04-30T08:18:00.061Z,21.03
2019-04-30T08:20:39.332Z,19.47
2019-04-30T08:23:20.175Z,20.10
2019-04-30T08:26:04.567Z,19.17
2019-04-30T08:28:38.814Z,21.17
2019-04-30T08:31:15.600Z,19.13
2019-04-30T08:33:49.040Z,19.60
2019-04-30T08:36:22.213Z,20.17
2019-04-30T08:38:56.245Z,19.63
2019-04-30T08:41:31.170Z,19.37
2019-04-30T08:44:05.308Z,17.90
2019-04-30T08:46:39.883Z,20.70
2019-04-30T08:49:18.900Z,19.10
2019-04-30T08:51:53.010Z,19.87
2019-04-30T08:54:26.344Z,17.73
2019-04-30T08:57:00.370Z,18.70
2019-04-30T08:59:33.694Z,20.30
2019-04-30T09:02:16.052Z,18.37
2019-04-30T09:04:58.812Z,19.27
2019-04-30T09:07:33.224Z,20.27
2019-04-30T09:10:06.514Z,18.73
2019-04-30T09:12:40.165Z,17.40
2019-04-30T09:15:15.639Z,17.10
2019-04-30T09:18:00.675Z,17.30
2019-04-30T09:20:39.098Z,17.70
2019-04-30T09:23:14.339Z,16.77
2019-04-30T09:25:49.668Z,20.08
2019-04-30T09:28:23.993Z,17.47
2019-04-30T09:31:01.178Z,17.93
2019-04-30T09:33:34.816Z,18.17
2019-04-30T09:36:09.523Z,16.53
2019-04-30T09:38:43.672Z,18.00
2019-04-30T09:41:16.936Z,16.97
2019-04-30T09:43:52.011Z,16.90
2019-04-30T09:46:27.166Z,18.80
2019-04-30T09:49:02.647Z,16.90
2019-04-30T09:51:39.423Z,16.73
2019-04-30T09:54:13.910Z,17.23
2019-04-30T09:56:49.610Z,16.40
2019-04-30T09:59:26.165Z,16.27
2019-04-30T10:01:59.706Z,16.60
2019-04-30T10:04:34.228Z,15.47
2019-04-30T10:07:09.638Z,15.43
2019-04-30T10:09:42.994Z,15.70
2019-04-30T10:12:15.812Z,15.23
2019-04-30T10:14:49.443Z,17.20
2019-04-30T10:17:41.549Z,16.77
2019-04-30T10:20:41.418Z,17.97
2019-04-30T10:23:14.579Z,18.95
2019-04-30T10:25:47.255Z,17.80
2019-04-30T10:28:21.266Z,15.87
2019-04-30T10:30:54.491Z,15.55
2019-04-30T10:33:28.719Z,17.40
2019-04-30T10:36:03.192Z,14.27
2019-04-30T10:38:36.592Z,13.60
2019-04-30T10:41:11.174Z,13.27
2019-04-30T10:43:45.853Z,13.60
2019-04-30T10:46:20.405Z,13.27
2019-04-30T10:48:56.741Z,14.45
2019-04-30T10:51:29.405Z,13.63
2019-04-30T10:54:01.935Z,14.67
2019-04-30T10:56:36.078Z,13.60
2019-04-30T10:59:12.737Z,14.60
2019-04-30T11:01:45.507Z,14.13
2019-04-30T11:04:20.691Z,13.47
2019-04-30T11:06:55.950Z,13.03
2019-04-30T11:09:31.057Z,12.90
2019-04-30T11:12:05.630Z,11.73
2019-04-30T11:14:38.109Z,12.63
2019-04-30T11:17:13.771Z,11.83
2019-04-30T11:19:49.295Z,11.73
2019-04-30T11:22:23.606Z,13.00
2019-04-30T11:25:01.785Z,12.70
2019-04-30T11:27:37.199Z,14.13
2019-04-30T11:30:23.402Z,13.37
2019-04-30T11:33:03.400Z,12.50
2019-04-30T11:35:39.359Z,15.25
2019-04-30T11:38:12.492Z,15.18
2019-04-30T11:40:48.636Z,14.17
2019-04-30T11:43:21.266Z,14.07
2019-04-30T11:46:40.710Z,12.97
2019-04-30T11:49:13.466Z,13.53
2019-04-30T11:51:46.203Z,12.17
2019-04-30T11:54:19.426Z,11.57
2019-04-30T11:56:52.895Z,12.33
2019-04-30T11:59:29.775Z,11.13
2019-04-30T12:02:15.266Z,10.43
2019-04-30T12:04:49.568Z,10.63
2019-04-30T12:07:41.835Z,10.83
2019-04-30T12:10:30.136Z,12.17
2019-04-30T12:13:23.499Z,11.80
2019-04-30T12:15:58.926Z,10.80
2019-04-30T12:18:34.799Z,10.60
2019-04-30T12:21:08.978Z,10.60
2019-04-30T12:23:42.904Z,11.20
2019-04-30T12:26:16.582Z,12.27
2019-04-30T12:28:50.463Z,12.20
2019-04-30T12:31:24.898Z,12.97
2019-04-30T12:33:58.924Z,11.80
2019-04-30T12:36:33.868Z,11.90
2019-04-30T12:39:12.048Z,12.00
2019-04-30T12:41:45.603Z,11.53
2019-04-30T12:44:18.965Z,10.73
2019-04-30T12:46:52.844Z,11.07
2019-04-30T12:49:53.357Z,12.97
2019-04-30T12:52:46.231Z,10.98
2019-04-30T12:59:01.209Z,12.43
2019-04-30T13:01:34.721Z,11.67
2019-04-30T13:04:15.794Z,13.60
2019-04-30T13:06:53.572Z,12.70
2019-04-30T13:09:33.647Z,12.67
2019-04-30T13:12:10.259Z,12.23
2019-04-30T13:14:51.466Z,12.20
2019-04-30T13:17:33.326Z,12.37
2019-04-30T13:20:18.540Z,11.60
2019-04-30T13:22:54.779Z,11.60
2019-04-30T13:25:34.810Z,12.43
2019-04-30T13:28:15.293Z,11.57
2019-04-30T13:30:49.425Z,11.93
2019-04-30T13:33:39.594Z,12.13
2019-04-30T13:36:22.110Z,11.40
2019-04-30T13:39:10.872Z,11.97
2019-04-30T13:42:01.471Z,12.10
2019-04-30T13:44:39.379Z,12.35
2019-04-30T13:47:19.076Z,12.03
2019-04-30T13:49:54.625Z,11.20
2019-04-30T13:52:30.971Z,12.47
2019-04-30T13:55:10.977Z,12.00
2019-04-30T13:57:48.360Z,9.87
2019-04-30T14:00:29.819Z,11.77
2019-04-30T14:03:23.548Z,11.07
2019-04-30T14:06:01.302Z,11.00
2019-04-30T14:08:48.802Z,11.07
2019-04-30T14:11:49.528Z,11.90
2019-04-30T14:14:29.596Z,10.43
2019-04-30T14:17:15.734Z,11.40
2019-04-30T14:19:54.307Z,11.13
2019-04-30T14:22:46.715Z,10.80
2019-04-30T14:25:56.687Z,11.17
2019-04-30T14:28:33.065Z,11.53
2019-04-30T14:31:07.567Z,10.47
2019-04-30T14:33:42.222Z,10.67
2019-04-30T14:36:15.516Z,11.50
2019-04-30T14:38:48.928Z,11.85
2019-04-30T14:41:24.371Z,10.90
2019-04-30T14:44:05.414Z,12.53
2019-04-30T14:46:52.767Z,14.03
2019-04-30T14:49:33.004Z,13.17
2019-04-30T14:52:09.370Z,11.50
2019-04-30T14:54:58.850Z,11.07
2019-04-30T14:57:53.930Z,10.85
2019-04-30T15:00:59.331Z,11.60
2019-04-30T15:03:46.397Z,11.55
2019-04-30T15:06:21.489Z,13.52
2019-04-30T15:08:55.131Z,12.10
2019-04-30T15:11:28.914Z,13.85
2019-04-30T15:14:02.570Z,13.57
2019-04-30T15:16:37.260Z,13.93
2019-04-30T15:19:10.277Z,11.07
2019-04-30T15:21:46.317Z,12.48
2019-04-30T15:24:29.309Z,12.47
2019-04-30T15:27:02.340Z,13.27
2019-04-30T15:29:39.627Z,15.17
2019-04-30T15:32:12.682Z,17.20
2019-04-30T15:34:48.932Z,19.50
2019-04-30T15:37:23.952Z,19.50
2019-04-30T15:39:59.255Z,18.30
2019-04-30T15:42:33.815Z,18.00
2019-04-30T15:45:09.260Z,18.67
2019-04-30T15:47:42.447Z,19.60
2019-04-30T15:50:15.254Z,19.33
2019-04-30T15:52:49.747Z,20.17
2019-04-30T15:55:31.601Z,19.33
2019-04-30T15:58:16.688Z,19.23
2019-04-30T16:00:50.846Z,19.43
2019-04-30T16:03:28.995Z,20.03
2019-04-30T16:06:04.786Z,20.43
2019-04-30T16:08:48.431Z,21.83
2019-04-30T16:11:36.373Z,22.67
2019-04-30T16:14:29.837Z,23.83
2019-04-30T16:17:11.229Z,21.63
2019-04-30T16:19:46.198Z,21.67
2019-04-30T16:22:20.774Z,21.27
2019-04-30T16:24:54.704Z,20.20
2019-04-30T16:27:27.974Z,20.83
2019-04-30T16:30:05.677Z,21.63
2019-04-30T16:32:39.566Z,22.10
2019-04-30T16:35:13.695Z,21.43
2019-04-30T16:37:49.640Z,21.73
2019-04-30T16:40:24.264Z,22.57
2019-04-30T16:42:57.789Z,21.70
2019-04-30T16:45:31.286Z,22.43
2019-04-30T16:48:04.576Z,22.30
2019-04-30T16:50:37.213Z,22.10
2019-04-30T16:53:10.551Z,23.13
2019-04-30T16:55:43.669Z,23.00
2019-04-30T16:58:19.640Z,22.53
2019-04-30T17:00:55.103Z,22.47
2019-04-30T17:03:39.210Z,21.80
2019-04-30T17:06:17.318Z,22.37
2019-04-30T17:09:03.207Z,21.70
2019-04-30T17:11:54.623Z,24.20
2019-04-30T17:14:41.943Z,24.90
2019-04-30T17:17:15.681Z,24.07
2019-04-30T17:19:50.027Z,25.05
2019-04-30T17:22:22.723Z,25.37
2019-04-30T17:24:55.291Z,24.07
2019-04-30T17:27:29.411Z,22.47
2019-04-30T17:30:05.120Z,23.30
2019-04-30T17:32:39.456Z,23.33
2019-04-30T17:35:15.494Z,23.13
2019-04-30T17:37:48.456Z,23.83
2019-04-30T17:40:22.679Z,23.93
2019-04-30T17:42:57.646Z,23.83
2019-04-30T17:45:31.309Z,22.77
2019-04-30T17:48:04.895Z,22.67
2019-04-30T17:50:39.707Z,23.87
2019-04-30T17:53:18.959Z,25.25
2019-04-30T17:55:59.033Z,22.73
2019-04-30T17:58:34.843Z,22.80
2019-04-30T18:01:10.641Z,22.77
2019-04-30T18:03:45.219Z,22.37
2019-04-30T18:06:18.987Z,23.33
2019-04-30T18:08:52.454Z,23.00
2019-04-30T18:11:25.379Z,24.07
2019-04-30T18:14:00.020Z,23.77
2019-04-30T18:16:35.840Z,25.42
2019-04-30T18:19:36.125Z,23.20
2019-04-30T18:22:29.366Z,23.83
2019-04-30T18:25:14.022Z,26.48
2019-04-30T18:27:53.569Z,23.23
2019-04-30T18:30:33.140Z,26.30
2019-04-30T18:33:09.855Z,23.83
2019-04-30T18:35:43.149Z,24.00
2019-04-30T18:38:17.781Z,23.73
2019-04-30T18:40:55.044Z,24.53
2019-04-30T18:43:29.768Z,26.00
2019-04-30T18:46:05.528Z,24.60
2019-04-30T18:48:41.404Z,24.37
2019-04-30T18:51:30.752Z,24.70
2019-04-30T18:54:10.203Z,26.03
2019-04-30T18:56:43.207Z,24.70
2019-04-30T18:59:17.218Z,28.12
2019-04-30T19:01:51.734Z,26.00
2019-04-30T19:04:28.794Z,25.03
2019-04-30T19:07:21.734Z,26.03
2019-04-30T19:10:06.732Z,25.20
2019-04-30T19:13:08.941Z,25.73
2019-04-30T19:16:21.920Z,28.12
2019-04-30T19:19:06.318Z,25.50
2019-04-30T19:21:40.371Z,28.53
2019-04-30T19:24:15.006Z,26.70
2019-04-30T19:26:50.141Z,25.53
2019-04-30T19:29:24.648Z,25.33
2019-04-30T19:32:00.124Z,25.47
2019-04-30T19:34:35.774Z,26.70
2019-04-30T19:37:09.572Z,26.50
2019-04-30T19:39:45.420Z,25.27
2019-04-30T19:42:25.776Z,27.37
2019-04-30T19:45:12.121Z,26.13
2019-04-30T19:47:46.095Z,27.07
2019-04-30T19:50:19.413Z,26.70
2019-04-30T19:52:58.772Z,26.80
2019-04-30T19:55:35.237Z,29.57
2019-04-30T19:58:46.719Z,28.17
2019-04-30T20:01:41.327Z,26.90
2019-04-30T20:04:18.526Z,26.77
2019-04-30T20:06:56.578Z,26.17
2019-04-30T20:09:37.561Z,27.30
2019-04-30T20:12:13.504Z,26.90
2019-04-30T20:14:49.680Z,26.63
2019-04-30T20:17:24.626Z,26.80
2019-04-30T20:19:58.900Z,26.17
2019-04-30T20:22:35.000Z,27.73
2019-04-30T20:25:10.376Z,26.87
2019-04-30T20:27:43.573Z,27.47
2019-04-30T20:30:19.422Z,26.57
2019-04-30T20:32:55.785Z,26.87
2019-04-30T20:35:31.423Z,27.93
2019-04-30T20:38:10.684Z,27.20
2019-04-30T20:40:59.532Z,27.67
2019-04-30T20:43:35.545Z,27.80
2019-04-30T20:46:08.813Z,28.70
2019-04-30T20:48:42.860Z,28.17
2019-04-30T20:51:19.576Z,28.17
2019-04-30T20:53:55.067Z,29.23
2019-04-30T20:56:33.358Z,28.97
2019-04-30T20:59:13.090Z,31.93
2019-04-30T21:01:46.448Z,27.87
2019-04-30T21:04:21.574Z,27.97
2019-04-30T21:06:55.188Z,28.57
2019-04-30T21:09:33.274Z,28.53
2019-04-30T21:12:05.763Z,29.30
2019-04-30T21:14:40.920Z,29.07
2019-04-30T21:17:16.631Z,29.03
2019-04-30T21:19:51.059Z,29.77
2019-04-30T21:22:25.683Z,31.37
2019-04-30T21:25:00.616Z,32.40
2019-04-30T21:27:35.368Z,32.67
2019-04-30T21:30:11.892Z,31.17
2019-04-30T21:33:09.394Z,31.13
2019-04-30T21:35:58.584Z,35.67
2019-04-30T21:38:33.199Z,31.63
2019-04-30T21:41:09.836Z,31.50
2019-04-30T21:43:45.455Z,31.70
2019-04-30T21:46:29.329Z,31.30
2019-04-30T21:49:02.079Z,31.37
2019-04-30T21:51:35.289Z,32.60
2019-04-30T21:54:10.518Z,31.80
2019-04-30T21:56:43.019Z,33.23
2019-04-30T21:59:24.149Z,32.87
2019-04-30T22:01:57.817Z,34.40
2019-04-30T22:04:31.436Z,39.03
2019-04-30T22:07:04.079Z,32.50
2019-04-30T22:09:36.619Z,34.80
2019-04-30T22:12:09.551Z,34.20
2019-04-30T22:14:43.130Z,34.20
2019-04-30T22:17:15.794Z,35.70
2019-04-30T22:19:52.374Z,32.67
2019-04-30T22:22:25.239Z,34.10
2019-04-30T22:25:03.124Z,33.07
2019-04-30T22:27:35.674Z,36.73
2019-04-30T22:30:09.583Z,38.50
2019-04-30T22:32:45.775Z,36.53
2019-04-30T22:35:41.296Z,43.17
2019-04-30T22:38:29.186Z,44.83
2019-04-30T22:41:02.508Z,41.70
2019-04-30T22:43:35.281Z,40.60
2019-04-30T22:46:13.573Z,41.43
2019-04-30T22:48:47.408Z,43.00
2019-04-30T22:51:19.941Z,42.93
2019-04-30T22:53:54.342Z,42.83
2019-04-30T22:56:27.513Z,43.93
2019-04-30T22:59:02.243Z,46.92
2019-04-30T23:01:56.435Z,46.27
2019-04-30T23:04:42.346Z,59.90
2019-04-30T23:07:14.922Z,50.73
2019-04-30T23:09:49.047Z,49.10
2019-04-30T23:12:24.174Z,45.67
2019-04-30T23:14:56.639Z,44.00
2019-04-30T23:17:30.154Z,44.33
2019-04-30T23:20:04.611Z,44.53
2019-04-30T23:22:38.407Z,43.43
2019-04-30T23:25:11.934Z,43.07
2019-04-30T23:27:44.570Z,43.87
2019-04-30T23:30:17.081Z,40.43
2019-04-30T23:32:51.968Z,43.13
2019-04-30T23:35:24.534Z,52.58
2019-04-30T23:37:57.339Z,47.20
2019-04-30T23:40:48.878Z,46.90
2019-04-30T23:43:22.379Z,47.00
2019-04-30T23:45:54.879Z,47.80
2019-04-30T23:48:27.712Z,45.83
2019-04-30T23:51:00.659Z,51.58
2019-04-30T23:53:33.978Z,45.90
2019-04-30T23:56:06.830Z,40.83
2019-04-30T23:58:39.430Z,40.33
